Time;durP1;ratioP1;P1;durP2;ratioP2;P2;SDS_P1;SDS_P2;PMS_P1;PMS_P2;Temp;Humidity;BMP_temperature;BMP_pressure;BME280_temperature;BME280_humidity;BME280_pressure;Samples;Min_cycle;Max_cycle;Signal;HPM_P1;HPM_P2
2022/06/05 00:02:16;;;;;;;21.40;9.77;;;;;;;23.84;63.41;100863.34;4973565;28;20045;-61
2022/06/05 00:05:22;;;;;;;15.20;9.25;;;;;;;23.85;63.33;100869.72;4971909;28;20439;-61
2022/06/05 00:08:52;;;;;;;24.70;9.52;;;;;;;23.86;63.10;100866.53;4975457;28;20045;-61
2022/06/05 00:11:59;;;;;;;21.55;9.82;;;;;;;23.92;63.15;100868.91;4971304;28;20061;-62
2022/06/05 00:14:45;;;;;;;159.68;19.30;;;;;;;23.89;63.23;100859.38;4972145;28;20045;-59
2022/06/05 00:17:30;;;;;;;22.27;11.35;;;;;;;22.81;67.40;100851.53;4977722;28;20050;-60
2022/06/05 00:20:15;;;;;;;18.40;10.52;;;;;;;23.00;66.88;100842.84;4971768;28;20046;-60
2022/06/05 00:23:00;;;;;;;19.17;10.23;;;;;;;23.25;65.44;100839.28;4973673;28;20042;-60
2022/06/05 00:26:32;;;;;;;28.42;10.65;;;;;;;22.89;67.29;100830.97;4976660;28;20046;-60
2022/06/05 00:29:36;;;;;;;18.23;11.05;;;;;;;22.69;68.78;100851.91;4972624;28;20410;-60
2022/06/05 00:32:35;;;;;;;19.02;11.02;;;;;;;22.82;67.98;100847.59;4968140;28;20039;-60
2022/06/05 00:35:21;;;;;;;21.15;10.65;;;;;;;22.96;67.51;100847.59;4956461;29;20043;-60
2022/06/05 00:38:25;;;;;;;23.67;11.50;;;;;;;23.12;66.83;100844.41;4973595;28;20035;-61
2022/06/05 00:41:42;;;;;;;27.83;11.23;;;;;;;23.37;65.98;100847.16;4979149;28;20047;-60
2022/06/05 00:44:33;;;;;;;22.35;11.68;;;;;;;23.36;66.15;100848.38;4975751;28;20043;-61
2022/06/05 00:47:20;;;;;;;18.58;10.88;;;;;;;23.22;66.56;100851.16;4976827;28;20070;-61
2022/06/05 00:50:06;;;;;;;24.95;11.90;;;;;;;23.18;66.62;100855.91;4978090;28;20058;-62
2022/06/05 00:52:55;;;;;;;19.13;9.93;;;;;;;23.17;66.79;100851.53;4968944;28;20050;-61
2022/06/05 00:55:45;;;;;;;23.50;10.82;;;;;;;23.16;67.02;100845.19;4956240;29;20046;-61
2022/06/05 00:58:31;;;;;;;18.08;10.68;;;;;;;23.18;66.64;100853.94;4956514;29;20047;-60
2022/06/05 01:01:16;;;;;;;22.90;12.50;;;;;;;23.21;66.36;100852.38;4957680;28;20047;-60
2022/06/05 01:04:01;;;;;;;25.02;10.88;;;;;;;23.12;66.67;100849.97;4967509;28;20051;-60
2022/06/05 01:06:46;;;;;;;16.98;10.45;;;;;;;23.10;66.73;100844.03;4977288;28;20039;-60
2022/06/05 01:09:32;;;;;;;18.10;12.48;;;;;;;23.31;65.82;100851.56;4975681;28;20059;-60
2022/06/05 01:12:19;;;;;;;21.73;10.98;;;;;;;23.21;65.80;100844.03;4979852;28;20043;-60
2022/06/05 01:15:10;;;;;;;16.38;10.20;;;;;;;23.01;66.81;100840.84;4955990;29;20047;-60
2022/06/05 01:18:01;;;;;;;20.95;10.90;;;;;;;23.08;66.89;100834.50;4956234;29;20047;-60
2022/06/05 01:21:07;;;;;;;17.70;10.35;;;;;;;22.95;67.41;100837.72;4956280;29;20063;-60
2022/06/05 01:24:16;;;;;;;19.73;10.25;;;;;;;22.98;67.31;100831.34;4963594;28;20039;-60
2022/06/05 01:27:06;;;;;;;23.75;11.50;;;;;;;22.89;67.48;100830.97;4969486;28;20042;-60
2022/06/05 01:30:00;;;;;;;21.80;11.52;;;;;;;23.00;66.84;100834.53;4976459;28;20035;-60
2022/06/05 01:33:10;;;;;;;15.65;10.27;;;;;;;22.89;67.26;100838.50;4980415;28;20042;-61
2022/06/05 01:35:58;;;;;;;16.30;9.05;;;;;;;22.95;66.93;100831.38;4968807;28;20042;-60
2022/06/05 01:39:01;;;;;;;18.25;10.77;;;;;;;22.96;66.73;100824.59;4977202;28;20058;-60
2022/06/05 01:41:51;;;;;;;18.27;11.75;;;;;;;22.90;67.13;100815.13;4975157;28;20042;-61
2022/06/05 01:44:45;;;;;;;17.05;9.63;;;;;;;22.90;67.13;100813.13;4968102;28;20047;-61
2022/06/05 01:47:35;;;;;;;24.50;11.63;;;;;;;22.86;67.06;100814.31;4974663;28;20402;-60
2022/06/05 01:50:26;;;;;;;20.35;12.05;;;;;;;22.81;67.39;100828.56;4974699;28;20034;-60
2022/06/05 01:53:23;;;;;;;15.88;10.55;;;;;;;22.91;66.86;100817.47;4974801;28;20038;-60
2022/06/05 01:56:16;;;;;;;21.52;11.75;;;;;;;22.90;66.90;100810.38;4968613;28;20039;-60
2022/06/05 01:59:09;;;;;;;14.38;9.63;;;;;;;22.90;67.00;100802.03;4975909;28;20418;-61
2022/06/05 02:01:57;;;;;;;22.00;11.18;;;;;;;22.89;66.99;100786.59;4979762;28;20051;-61
2022/06/05 02:05:07;;;;;;;16.35;10.55;;;;;;;22.91;66.69;100798.06;4971957;28;20051;-61
2022/06/05 02:07:57;;;;;;;23.25;12.63;;;;;;;22.89;67.08;100796.88;4967291;28;20046;-59
2022/06/05 02:10:52;;;;;;;17.15;10.65;;;;;;;22.77;67.47;100794.50;4978137;28;20035;-59
2022/06/05 02:13:37;;;;;;;;;;;;;;;22.86;67.05;100786.56;4975010;28;20043;-60
2022/06/05 02:16:22;;;;;;;21.40;13.05;;;;;;;22.85;67.43;100787.78;4978476;28;19930;-60
2022/06/05 02:19:15;;;;;;;21.63;14.18;;;;;;;22.93;68.18;100784.59;4974468;28;20034;-59
2022/06/05 02:22:11;;;;;;;23.58;14.60;;;;;;;22.64;69.69;100785.75;4977650;28;20047;-60
2022/06/05 02:24:56;;;;;;;23.13;14.50;;;;;;;22.56;70.01;100781.38;4976184;28;20035;-59
2022/06/05 02:27:40;;;;;;;27.95;14.52;;;;;;;22.38;71.14;100778.59;4973465;28;20046;-59
2022/06/05 02:30:39;;;;;;;26.55;15.60;;;;;;;22.44;71.01;100781.78;4974069;28;20043;-59
2022/06/05 02:33:46;;;;;;;24.48;13.98;;;;;;;22.46;70.40;100782.16;4976046;28;20046;-59
2022/06/05 02:36:49;;;;;;;23.77;13.40;;;;;;;22.36;70.54;100775.44;4971093;28;20047;-59
2022/06/05 02:40:04;;;;;;;19.92;12.38;;;;;;;22.48;69.17;100772.28;4976298;28;20038;-59
2022/06/05 02:43:14;;;;;;;23.70;13.57;;;;;;;22.51;69.52;100765.94;4978613;28;20050;-59
2022/06/05 02:46:05;;;;;;;14.95;11.77;;;;;;;22.56;68.86;100756.44;4972221;28;20042;-59
2022/06/05 02:49:08;;;;;;;22.35;13.02;;;;;;;22.63;68.76;100752.88;4962215;28;20050;-59
2022/06/05 02:51:56;;;;;;;21.30;12.95;;;;;;;22.68;68.09;100747.75;4976080;28;20387;-60
2022/06/05 02:54:46;;;;;;;18.58;13.15;;;;;;;22.69;68.61;100740.22;4973956;28;20038;-59
2022/06/05 02:57:31;;;;;;;21.23;12.73;;;;;;;22.62;68.52;100743.78;4977455;28;20042;-59
2022/06/05 03:00:20;;;;;;;24.60;12.45;;;;;;;22.50;69.39;100742.19;4957213;28;20063;-59
2022/06/05 03:06:09;;;;;;;28.20;12.45;;;;;;;22.49;68.54;100745.38;4957426;28;20047;-60
2022/06/05 03:08:54;;;;;;;19.45;10.90;;;;;;;22.33;69.32;100742.97;4957985;28;20416;-60
2022/06/05 03:11:40;;;;;;;22.90;13.10;;;;;;;22.18;69.67;100742.16;4967293;28;20038;-59
2022/06/05 03:14:27;;;;;;;17.48;11.95;;;;;;;22.37;68.95;100751.28;4973134;28;20047;-60
2022/06/05 03:17:11;;;;;;;24.00;11.63;;;;;;;22.48;68.37;100738.22;4974790;28;20038;-60
2022/06/05 03:19:57;;;;;;;23.52;11.60;;;;;;;22.61;67.81;100745.75;4972807;28;20074;-60
2022/06/05 03:22:42;;;;;;;19.23;10.73;;;;;;;22.75;67.25;100753.31;4977039;28;20431;-60
2022/06/05 03:25:27;;;;;;;19.10;11.48;;;;;;;22.97;66.37;100768.75;4972743;28;20459;-60
2022/06/05 03:28:12;;;;;;;21.23;12.48;;;;;;;22.95;65.98;100773.13;4973269;28;20051;-60
2022/06/05 03:30:57;;;;;;;27.20;13.02;;;;;;;22.64;67.76;100785.75;4964680;28;20042;-61
2022/06/05 03:33:41;;;;;;;23.17;13.02;;;;;;;22.48;68.39;100799.22;4974716;28;20043;-60
2022/06/05 03:36:28;;;;;;;25.13;13.30;;;;;;;22.17;69.65;100795.19;4972234;28;20046;-60
2022/06/05 03:39:13;;;;;;;22.48;12.98;;;;;;;22.01;70.53;100798.31;4973427;28;20499;-60
2022/06/05 03:41:59;;;;;;;22.65;13.50;;;;;;;21.99;70.87;100806.19;4967410;28;20047;-60
2022/06/05 03:44:44;;;;;;;33.60;13.68;;;;;;;21.97;71.36;100822.44;4972959;28;20043;-60
2022/06/05 03:47:29;;;;;;;22.45;13.60;;;;;;;22.17;70.18;100829.22;4977123;28;20042;-60
2022/06/05 03:50:16;;;;;;;23.67;15.73;;;;;;;22.06;70.59;100830.38;4970521;28;20086;-60
2022/06/05 03:53:01;;;;;;;24.33;14.23;;;;;;;21.91;71.19;100829.47;4953691;28;20051;-60
2022/06/05 03:55:46;;;;;;;19.50;12.30;;;;;;;22.30;70.10;100817.78;4972303;28;20406;-60
2022/06/05 03:58:31;;;;;;;24.15;12.88;;;;;;;22.44;69.20;100801.97;4974815;28;20039;-60
2022/06/05 04:01:18;;;;;;;22.17;13.63;;;;;;;22.29;70.18;100819.78;4965802;28;20042;-60
2022/06/05 04:04:03;;;;;;;21.10;12.27;;;;;;;22.42;69.13;100831.25;4967338;28;20035;-60
2022/06/05 04:06:48;;;;;;;23.00;13.43;;;;;;;22.49;68.66;100822.97;4975158;28;20047;-60
2022/06/05 04:09:32;;;;;;;19.42;11.35;;;;;;;22.74;67.60;100818.28;4972023;28;20038;-60
2022/06/05 04:12:17;;;;;;;15.73;11.20;;;;;;;22.86;67.06;100819.84;4972261;28;20051;-61
2022/06/05 04:15:02;;;;;;;21.35;12.75;;;;;;;22.87;66.62;100805.59;4972770;28;20030;-60
2022/06/05 04:17:47;;;;;;;20.05;11.77;;;;;;;23.22;66.02;100812.28;4969926;28;20051;-60
2022/06/05 04:20:33;;;;;;;34.80;12.95;;;;;;;23.48;64.62;100816.66;4972464;28;20042;-60
2022/06/05 04:23:17;;;;;;;21.27;11.77;;;;;;;23.66;63.98;100822.97;4974976;28;20411;-60
2022/06/05 04:26:07;;;;;;;21.08;12.05;;;;;;;23.85;63.34;100826.06;4973319;28;20419;-60
2022/06/05 04:28:54;;;;;;;23.17;11.68;;;;;;;24.07;62.61;100831.53;4973882;28;20487;-60
2022/06/05 04:31:44;;;;;;;19.83;13.23;;;;;;;24.11;62.55;100826.75;4970192;28;20043;-59
2022/06/05 04:34:29;;;;;;;16.13;10.35;;;;;;;24.01;62.86;100820.03;4963777;28;20035;-60
2022/06/05 04:37:14;;;;;;;31.15;12.23;;;;;;;24.05;62.85;100822.78;4971449;28;20042;-60
2022/06/05 04:39:59;;;;;;;22.30;12.02;;;;;;;24.06;62.88;100822.41;4972084;28;20043;-60
2022/06/05 04:42:45;;;;;;;20.38;11.27;;;;;;;24.02;63.30;100840.28;4972973;28;20035;-60
2022/06/05 04:45:30;;;;;;;20.10;13.00;;;;;;;24.08;63.87;100855.31;4970596;28;20054;-59
2022/06/05 04:48:15;;;;;;;21.48;11.75;;;;;;;24.12;63.48;100856.13;4968621;28;20043;-60
2022/06/05 04:51:06;;;;;;;19.15;12.40;;;;;;;24.18;63.28;100865.63;4973977;28;20072;-60
2022/06/05 04:53:54;;;;;;;33.85;12.57;;;;;;;24.19;63.03;100862.44;4972087;28;20419;-60
2022/06/05 04:56:39;;;;;;;24.08;12.90;;;;;;;24.42;63.10;100861.16;4971835;28;20039;-60
2022/06/05 04:59:24;;;;;;;20.58;12.32;;;;;;;24.43;62.68;100863.50;4971982;28;20435;-61
2022/06/05 05:02:09;;;;;;;20.02;11.60;;;;;;;24.55;62.25;100860.28;4972057;28;20046;-61
2022/06/05 05:04:56;;;;;;;20.98;12.27;;;;;;;24.64;62.34;100855.03;4968643;28;20043;-61
2022/06/05 05:07:41;;;;;;;22.75;11.75;;;;;;;24.74;62.15;100858.19;4971701;28;20038;-61
2022/06/05 05:10:27;;;;;;;26.88;12.00;;;;;;;25.04;61.20;100866.72;4977436;28;20038;-61
2022/06/05 05:13:12;;;;;;;20.15;11.55;;;;;;;25.27;59.88;100868.91;4971707;28;20035;-61
2022/06/05 05:15:57;;;;;;;22.42;11.45;;;;;;;25.36;59.41;100863.63;4968480;28;20031;-61
2022/06/05 05:18:42;;;;;;;19.17;10.45;;;;;;;25.21;59.73;100860.19;4973371;28;20047;-62
2022/06/05 05:21:27;;;;;;;19.45;10.75;;;;;;;25.12;59.93;100857.09;4977303;28;20042;-64
2022/06/05 05:24:12;;;;;;;21.92;10.80;;;;;;;25.11;59.97;100856.31;4974090;28;20047;-62
2022/06/05 05:26:57;;;;;;;19.25;10.70;;;;;;;25.17;59.99;100848.31;4975091;28;20046;-62
2022/06/05 05:29:43;;;;;;;23.73;10.15;;;;;;;25.33;59.51;100850.56;4975303;28;20047;-64
2022/06/05 05:32:28;;;;;;;18.75;10.02;;;;;;;25.43;59.72;100850.44;4977885;28;20039;-62
2022/06/05 05:35:13;;;;;;;20.60;9.85;;;;;;;25.52;59.35;100841.59;4973972;28;20035;-61
2022/06/05 05:37:58;;;;;;;19.33;11.07;;;;;;;25.66;59.06;100832.31;4964555;28;20054;-61
2022/06/05 05:43:47;;;;;;;20.90;10.63;;;;;;;26.07;57.30;100838.59;4981734;28;20498;-61
2022/06/05 05:46:32;;;;;;;19.02;9.68;;;;;;;26.17;56.76;100839.66;4981764;28;20403;-61
2022/06/05 05:49:17;;;;;;;21.25;9.35;;;;;;;26.43;55.35;100843.72;4975902;28;20403;-62
2022/06/05 05:52:03;;;;;;;18.58;10.23;;;;;;;26.50;54.65;100843.63;4981746;28;20057;-62
2022/06/05 05:54:48;;;;;;;21.40;9.73;;;;;;;26.35;55.05;100846.63;4975245;28;20424;-62
2022/06/05 05:57:33;;;;;;;23.45;10.55;;;;;;;26.41;54.73;100843.34;4980348;28;20058;-62
2022/06/05 06:00:20;;;;;;;27.23;9.02;;;;;;;26.49;53.88;100847.63;4981780;28;20235;-62
2022/06/05 06:03:05;;;;;;;19.48;8.80;;;;;;;26.62;53.68;100852.19;4981675;28;20045;-62
2022/06/05 06:05:49;;;;;;;22.95;9.45;;;;;;;26.91;52.63;100849.78;4981203;28;20054;-62
2022/06/05 06:08:34;;;;;;;17.17;8.90;;;;;;;27.07;52.30;100838.72;4977250;28;20057;-62
2022/06/05 06:11:21;;;;;;;23.05;9.57;;;;;;;27.36;51.79;100832.66;4974706;28;20041;-62
2022/06/05 06:14:06;;;;;;;24.90;9.82;;;;;;;27.63;51.07;100827.78;4981255;28;20058;-62
2022/06/05 06:16:51;;;;;;;15.55;9.02;;;;;;;27.74;50.52;100828.34;4974909;28;20045;-63
2022/06/05 06:19:37;;;;;;;29.83;8.52;;;;;;;27.55;50.66;100823.53;4974717;28;20050;-63
2022/06/05 06:22:21;;;;;;;16.08;10.00;;;;;;;27.68;50.99;100810.53;4974525;28;20050;-62
2022/06/05 06:25:07;;;;;;;18.02;8.85;;;;;;;27.90;50.53;100819.25;4974484;28;20038;-62
2022/06/05 06:27:52;;;;;;;20.25;9.48;;;;;;;28.07;49.70;100815.28;4974360;28;20049;-62
2022/06/05 06:30:39;;;;;;;17.92;7.70;;;;;;;28.31;49.02;100818.78;4974227;28;20074;-62
2022/06/05 06:33:23;;;;;;;20.65;10.10;;;;;;;28.10;49.35;100808.81;4980854;28;20050;-62
2022/06/05 06:36:13;;;;;;;24.90;7.45;;;;;;;28.13;49.41;100808.00;4974269;28;20038;-63
2022/06/05 06:38:59;;;;;;;16.73;7.78;;;;;;;28.21;49.50;100801.00;4974117;28;20049;-63
2022/06/05 06:41:45;;;;;;;23.42;8.45;;;;;;;28.42;48.76;100796.94;4964253;28;20054;-63
2022/06/05 06:44:30;;;;;;;21.15;7.40;;;;;;;28.73;48.33;100784.22;4954594;29;20050;-61
2022/06/05 06:47:14;;;;;;;16.63;8.05;;;;;;;28.53;48.64;100785.50;4960711;28;20050;-62
2022/06/05 06:50:00;;;;;;;19.00;7.53;;;;;;;28.65;48.08;100784.81;4954859;29;20399;-62
2022/06/05 06:52:44;;;;;;;18.05;8.40;;;;;;;29.02;47.46;100789.88;4954687;29;20054;-61
2022/06/05 06:55:32;;;;;;;15.77;8.27;;;;;;;29.48;45.98;100785.84;4961025;28;20054;-62
2022/06/05 06:58:18;;;;;;;17.75;7.95;;;;;;;29.10;47.08;100777.28;4957137;28;20063;-59
2022/06/05 07:01:03;;;;;;;21.55;8.48;;;;;;;28.52;48.10;100762.31;4973861;28;20050;-59
2022/06/05 07:03:48;;;;;;;12.88;6.85;;;;;;;28.20;49.36;100762.28;4980249;28;20053;-59
2022/06/05 07:06:33;;;;;;;22.58;7.88;;;;;;;27.78;50.67;100756.41;4979941;28;20038;-60
2022/06/05 07:09:19;;;;;;;23.52;7.80;;;;;;;29.64;45.92;100745.75;4967692;28;20062;-67
2022/06/05 07:12:04;;;;;;;24.92;8.13;;;;;;;30.80;43.08;100741.31;4966580;28;20057;-67
2022/06/05 07:14:49;;;;;;;14.70;7.15;;;;;;;31.35;42.08;100731.34;4972165;28;20458;-65
2022/06/05 07:17:34;;;;;;;15.95;7.82;;;;;;;30.12;44.43;100730.72;4973325;28;20054;-61
2022/06/05 07:20:20;;;;;;;17.02;8.25;;;;;;;29.27;46.72;100733.19;4973492;28;20062;-61
2022/06/05 07:23:05;;;;;;;27.65;8.93;;;;;;;27.45;51.49;100719.13;4973285;28;20046;-60
2022/06/05 07:25:51;;;;;;;21.42;8.52;;;;;;;27.42;52.73;100722.00;4953857;29;20073;-61
2022/06/05 07:28:37;;;;;;;32.22;10.00;;;;;;;27.47;53.04;100710.34;4959048;28;20050;-62
2022/06/05 07:31:23;;;;;;;16.13;8.32;;;;;;;27.17;52.95;100716.94;4973454;28;20047;-61
2022/06/05 07:34:09;;;;;;;21.85;9.00;;;;;;;27.26;53.48;100710.75;4975891;28;20042;-64
2022/06/05 07:36:53;;;;;;;17.48;8.57;;;;;;;27.41;52.67;100717.63;4955200;28;20050;-61
2022/06/05 07:39:39;;;;;;;25.52;10.25;;;;;;;27.68;52.16;100707.13;4953824;29;20510;-61
2022/06/05 07:42:24;;;;;;;24.25;10.55;;;;;;;27.90;52.31;100716.59;4954919;28;20043;-60
2022/06/05 07:45:14;;;;;;;13.80;9.15;;;;;;;28.32;50.35;100720.44;4975691;28;20040;-61
2022/06/05 07:47:58;;;;;;;22.52;9.70;;;;;;;28.37;50.37;100719.13;4968760;28;20050;-61
2022/06/05 07:56:50;;;;;;;13.32;7.97;;;;;;;27.90;51.44;100697.03;4962327;28;20521;-61
2022/06/05 07:59:39;;;;;;;15.85;8.63;;;;;;;27.77;51.06;100701.72;4976522;28;20069;-62
2022/06/05 08:02:28;;;;;;;34.78;12.27;;;;;;;28.33;49.41;100708.03;4972476;28;20054;-61
2022/06/05 08:05:12;;;;;;;31.63;10.88;;;;;;;28.70;49.84;100692.69;4968062;28;20039;-62
2022/06/05 08:07:57;;;;;;;51.22;9.10;;;;;;;28.83;48.69;100693.56;4968904;28;20043;-62
2022/06/05 08:10:42;;;;;;;25.17;10.38;;;;;;;28.79;48.22;100692.09;4971492;28;20054;-61
2022/06/05 08:13:27;;;;;;;21.95;9.30;;;;;;;28.77;48.54;100684.13;4971818;28;20399;-62
2022/06/05 08:16:13;;;;;;;24.52;11.05;;;;;;;28.64;47.99;100679.69;4972251;28;20050;-62
2022/06/05 08:18:58;;;;;;;39.88;12.10;;;;;;;28.74;47.96;100678.66;4972213;28;20038;-62
2022/06/05 08:21:42;;;;;;;25.30;10.52;;;;;;;28.75;48.09;100675.38;4970987;28;20046;-62
2022/06/05 08:24:27;;;;;;;23.95;9.18;;;;;;;28.80;46.58;100688.09;4972427;28;20039;-62
2022/06/05 08:27:16;;;;;;;18.02;8.82;;;;;;;29.15;46.28;100691.91;4967796;28;20035;-62
2022/06/05 08:30:02;;;;;;;21.88;10.48;;;;;;;28.70;46.96;100687.09;4971684;28;20053;-62
2022/06/05 08:32:47;;;;;;;29.02;8.90;;;;;;;28.71;47.15;100673.88;4963509;28;20039;-62
2022/06/05 08:35:31;;;;;;;19.25;9.48;;;;;;;28.54;47.69;100667.53;4971400;28;20414;-62
2022/06/05 08:41:30;;;;;;;16.23;7.40;;;;;;;29.26;46.81;100678.38;4968854;28;20521;-62
2022/06/05 08:44:14;;;;;;;20.38;8.00;;;;;;;28.53;47.96;100676.38;4971863;28;20054;-62
2022/06/05 08:47:21;;;;;;;19.27;8.07;;;;;;;28.71;47.95;100663.47;4970236;28;20050;-61
2022/06/05 08:50:28;;;;;;;18.88;8.05;;;;;;;28.98;48.05;100659.59;4964421;28;20644;-62
2022/06/05 08:53:38;;;;;;;19.00;8.82;;;;;;;29.18;47.14;100663.00;4971924;28;20046;-62
2022/06/05 08:56:45;;;;;;;16.02;8.23;;;;;;;29.58;46.06;100666.25;4972805;28;20058;-62
2022/06/05 08:59:48;;;;;;;19.88;7.82;;;;;;;29.52;46.11;100646.41;4975715;28;20054;-62
2022/06/05 09:02:43;;;;;;;18.20;7.05;;;;;;;29.73;46.24;100642.94;4979584;28;20050;-62
2022/06/05 09:05:31;;;;;;;;;;;;;;;29.72;45.92;100652.59;4975909;28;20522;-62
2022/06/05 09:08:20;;;;;;;15.75;7.45;;;;;;;29.73;45.58;100653.38;4972581;28;19914;-62
2022/06/05 09:11:28;;;;;;;20.70;6.82;;;;;;;29.93;44.70;100653.19;4970261;28;20410;-62
2022/06/05 09:14:31;;;;;;;17.25;6.93;;;;;;;29.68;44.84;100654.72;4971530;28;20045;-62
2022/06/05 09:17:20;;;;;;;17.63;5.93;;;;;;;29.96;44.31;100664.28;4975367;28;20061;-62
2022/06/05 09:20:06;;;;;;;21.17;6.40;;;;;;;29.92;44.59;100665.66;4976812;28;20053;-62
2022/06/05 09:22:59;;;;;;;20.25;6.70;;;;;;;30.06;43.88;100668.78;4956477;29;20054;-63
2022/06/05 09:26:07;;;;;;;21.30;7.80;;;;;;;30.05;43.92;100669.22;4955832;29;20051;-62
2022/06/05 09:29:20;;;;;;;15.38;7.97;;;;;;;29.96;44.48;100672.72;4955965;28;20113;-62
2022/06/05 09:32:46;;;;;;;15.90;6.82;;;;;;;29.90;44.67;100679.31;4968855;28;20046;-62
2022/06/05 09:35:45;;;;;;;18.42;8.35;;;;;;;29.71;45.12;100684.66;4976863;28;20521;-62
2022/06/05 09:38:54;;;;;;;18.92;7.60;;;;;;;29.59;45.67;100688.25;4974830;28;20062;-62
2022/06/05 09:41:42;;;;;;;15.45;7.68;;;;;;;29.71;45.98;100684.66;4965671;28;20050;-62
2022/06/05 09:44:30;;;;;;;24.00;7.75;;;;;;;29.70;46.73;100697.13;4966857;28;20514;-62
2022/06/05 09:47:39;;;;;;;20.42;8.20;;;;;;;29.20;46.98;100694.97;4962640;28;20047;-62
2022/06/05 09:50:27;;;;;;;17.67;8.50;;;;;;;29.36;48.29;100702.53;4992120;28;20442;-62
2022/06/05 09:53:19;;;;;;;14.45;8.25;;;;;;;29.52;48.63;100699.66;4967776;28;20046;-62
2022/06/05 09:58:24;;;;;;;12.45;7.30;;;;;;;29.86;47.24;100698.25;4970846;28;20058;-62
2022/06/05 09:59:46;;;;;;;16.50;7.82;;;;;;;30.01;46.22;100696.59;4956347;28;20054;-62
2022/06/05 10:02:33;;;;;;;22.75;9.02;;;;;;;30.10;45.90;100713.53;4967999;28;20054;-62
2022/06/05 10:05:26;;;;;;;22.50;8.80;;;;;;;30.18;46.01;100701.63;4972698;28;20438;-63
2022/06/05 10:08:26;;;;;;;20.38;7.82;;;;;;;30.40;45.75;100707.34;4974272;28;20643;-63
2022/06/05 10:11:22;;;;;;;13.95;6.88;;;;;;;30.32;44.35;100711.63;4978885;28;20050;-63
2022/06/05 10:14:25;;;;;;;14.90;6.55;;;;;;;30.30;43.96;100714.09;4966433;28;20050;-62
2022/06/05 10:17:47;;;;;;;10.70;6.25;;;;;;;30.38;44.32;100704.19;4974428;28;20041;-62
2022/06/05 10:20:56;;;;;;;13.68;5.97;;;;;;;30.37;44.22;100699.84;4961512;28;20049;-62
2022/06/05 10:23:46;;;;;;;17.63;6.82;;;;;;;30.42;45.76;100702.06;4968980;28;20410;-62
2022/06/05 10:26:37;;;;;;;18.92;7.20;;;;;;;30.69;44.07;100720.44;4973780;28;20053;-63
2022/06/05 10:29:38;;;;;;;23.38;7.30;;;;;;;30.71;45.16;100720.78;4973724;28;20057;-63
2022/06/05 10:32:36;;;;;;;18.25;7.45;;;;;;;30.74;44.09;100719.84;4964098;28;20046;-63
2022/06/05 10:35:30;;;;;;;24.27;7.25;;;;;;;30.76;43.63;100703.34;4964909;28;20054;-63
2022/06/05 10:38:32;;;;;;;12.45;6.50;;;;;;;30.79;44.42;100705.25;4970435;28;20050;-63
2022/06/05 10:41:21;;;;;;;29.92;7.65;;;;;;;30.63;44.21;100697.00;4973837;28;20046;-62
2022/06/05 10:44:21;;;;;;;13.70;6.70;;;;;;;30.88;43.86;100699.72;4959640;28;20049;-63
2022/06/05 10:47:15;;;;;;;15.68;6.68;;;;;;;30.75;43.89;100679.31;4954209;29;20050;-63
2022/06/05 10:50:14;;;;;;;18.95;8.25;;;;;;;30.92;44.28;100664.66;4954705;29;20221;-63
2022/06/05 10:53:26;;;;;;;14.98;6.97;;;;;;;30.81;44.33;100649.41;4954520;28;20058;-62
2022/06/05 10:56:30;;;;;;;19.63;7.93;;;;;;;30.80;44.08;100650.66;4960511;28;20049;-63
2022/06/05 10:59:18;;;;;;;14.40;6.38;;;;;;;31.06;43.50;100640.91;4973525;28;20050;-63
2022/06/05 11:02:28;;;;;;;15.23;7.32;;;;;;;30.64;43.50;100637.56;4971547;28;20054;-62
2022/06/05 11:05:31;;;;;;;15.45;7.53;;;;;;;30.44;43.64;100635.03;4969807;28;20668;-62
2022/06/05 11:08:53;;;;;;;16.20;6.95;;;;;;;30.75;43.94;100629.56;4972093;28;20043;-62
2022/06/05 11:15:00;;;;;;;13.43;6.65;;;;;;;30.69;43.97;100622.94;4969644;28;20053;-63
2022/06/05 11:18:11;;;;;;;20.65;6.20;;;;;;;30.81;42.88;100624.13;4965602;28;20407;-62
2022/06/05 11:20:58;;;;;;;15.55;4.55;;;;;;;30.80;42.18;100628.19;4966742;28;20042;-62
2022/06/05 11:23:50;;;;;;;13.55;4.55;;;;;;;30.77;42.21;100634.72;4953803;28;20530;-62
2022/06/05 11:27:03;;;;;;;19.08;4.78;;;;;;;30.74;42.12;100625.16;4965268;28;20062;-62
2022/06/05 11:30:02;;;;;;;16.80;4.82;;;;;;;30.46;42.14;100618.56;4966513;28;20051;-62
2022/06/05 11:33:12;;;;;;;11.75;4.40;;;;;;;30.79;42.53;100606.94;4962420;28;20529;-62
2022/06/05 11:36:24;;;;;;;16.63;4.70;;;;;;;31.16;41.59;100591.94;4967692;28;20042;-62
2022/06/05 11:39:40;;;;;;;9.27;4.35;;;;;;;31.27;40.66;100595.13;4967925;28;20066;-62
2022/06/05 11:42:47;;;;;;;19.13;4.32;;;;;;;31.49;39.00;100591.50;4965093;28;20053;-62
2022/06/05 11:45:33;;;;;;;11.85;4.47;;;;;;;31.37;40.26;100588.31;4954551;28;20042;-62
2022/06/05 11:48:28;;;;;;;21.92;5.45;;;;;;;31.54;39.87;100588.88;4962089;28;20066;-62
2022/06/05 11:51:21;;;;;;;14.43;5.22;;;;;;;31.50;38.89;100591.00;4961790;28;20058;-62
2022/06/05 11:54:19;;;;;;;11.73;4.07;;;;;;;31.44;40.01;100593.63;4959641;28;20169;-62
2022/06/05 11:57:27;;;;;;;18.95;4.50;;;;;;;31.41;41.34;100583.34;4969609;28;20062;-63
2022/06/05 12:00:18;;;;;;;20.17;5.15;;;;;;;31.45;41.06;100586.00;4969549;28;20062;-62
2022/06/05 12:03:46;;;;;;;22.90;5.35;;;;;;;31.60;39.32;100586.25;4966846;28;20038;-62
2022/06/05 12:06:40;;;;;;;18.95;5.03;;;;;;;31.83;39.99;100589.31;4969624;28;20053;-63
2022/06/05 12:09:29;;;;;;;17.15;4.28;;;;;;;31.84;38.64;100587.28;4961172;28;20054;-62
2022/06/05 12:12:24;;;;;;;9.65;4.03;;;;;;;31.71;40.05;100586.59;4972457;28;20066;-62
2022/06/05 12:15:49;;;;;;;20.25;5.18;;;;;;;31.83;40.21;100591.34;4971636;28;20050;-62
2022/06/05 12:18:47;;;;;;;;;;;;;;;32.01;39.19;100599.03;4953572;29;20050;-63
2022/06/05 12:21:43;;;;;;;12.30;4.53;;;;;;;31.92;39.11;100582.13;4956686;28;19922;-62
2022/06/05 12:24:36;;;;;;;14.15;4.43;;;;;;;31.91;38.37;100581.34;4962853;28;20066;-63
2022/06/05 12:27:21;;;;;;;14.85;4.85;;;;;;;32.03;40.31;100577.63;4971570;28;20050;-63
2022/06/05 12:30:15;;;;;;;13.32;5.00;;;;;;;31.95;40.60;100578.41;4977332;28;20514;-62
2022/06/05 12:32:59;;;;;;;15.77;4.03;;;;;;;31.86;39.15;100576.31;4971576;28;20041;-62
2022/06/05 12:35:49;;;;;;;57.92;9.25;;;;;;;31.92;39.16;100574.47;4972271;28;20054;-62
2022/06/05 12:38:42;;;;;;;13.05;3.90;;;;;;;31.89;39.96;100557.75;4971938;28;20069;-63
2022/06/05 12:41:41;;;;;;;14.10;3.88;;;;;;;32.06;39.83;100573.09;4974297;28;20042;-62
2022/06/05 12:44:31;;;;;;;14.90;4.43;;;;;;;32.09;39.85;100564.50;4971607;28;20046;-63
2022/06/05 12:47:19;;;;;;;11.38;4.38;;;;;;;32.17;39.13;100567.81;4962506;28;20073;-63
2022/06/05 12:50:48;;;;;;;14.38;3.67;;;;;;;31.78;38.88;100566.63;4964319;28;20049;-62
2022/06/05 12:54:04;;;;;;;13.02;3.63;;;;;;;31.95;38.83;100541.81;4966175;28;20545;-62
2022/06/05 12:56:55;;;;;;;15.27;4.22;;;;;;;32.08;37.05;100534.81;4966603;28;20054;-62
2022/06/05 12:59:53;;;;;;;18.30;4.40;;;;;;;31.65;37.93;100524.56;4968832;28;20522;-62
2022/06/05 13:02:58;;;;;;;19.80;3.38;;;;;;;31.82;38.58;100527.88;4967641;28;20525;-62
2022/06/05 13:05:47;;;;;;;19.35;3.13;;;;;;;31.71;37.50;100533.94;4968537;28;20046;-62
2022/06/05 13:08:46;;;;;;;16.00;3.10;;;;;;;31.88;36.69;100528.84;4965371;28;20564;-63
2022/06/05 13:11:31;;;;;;;18.13;3.65;;;;;;;31.64;38.07;100508.16;4955045;28;20101;-62
2022/06/05 13:14:40;;;;;;;18.70;4.15;;;;;;;31.35;37.83;100497.25;4968801;28;20066;-62
2022/06/05 13:17:38;;;;;;;23.65;3.42;;;;;;;31.64;36.67;100499.72;4963913;28;20057;-63
2022/06/05 13:20:42;;;;;;;19.77;3.65;;;;;;;31.64;36.51;100486.44;4964438;28;20051;-62
2022/06/05 13:23:37;;;;;;;13.45;3.05;;;;;;;31.56;37.41;100470.28;4969499;28;20450;-66
2022/06/05 13:26:43;;;;;;;14.68;2.65;;;;;;;31.53;37.73;100466.41;4971851;28;20046;-63
2022/06/05 13:29:53;;;;;;;15.13;3.67;;;;;;;31.43;37.71;100468.41;4958132;28;20423;-63